KESN/ESN METAR and TAF weather

Enter ICAO airport designator
Station Type Date Time Source
KESN METAR 2024/05/28 21:50 UTC NOAA

KESN 282150Z 27008KT 10SM CLR 27/13 A2982


Station Type Date Time Source
KESN Decoded METAR 2024/05/28 21:50 UTC NOAA

Easton / Newman Field, MD, United States (KESN) 38-48N 076-04W
May 28, 2024 - 05:50 PM EDT / 2024.05.28 2150 UTC
Wind: from the W (270 degrees) at 9 MPH (8 KT):0
Visibility: 10 mile(s):0
Sky conditions: clear
Temperature: 80 F (27 C)
Dew Point: 55 F (13 C)
Relative Humidity: 41%
Pressure (altimeter): 29.82 in. Hg (1009 hPa)
ob: KESN 282150Z 27008KT 10SM CLR 27/13 A2982
cycle: 22

Station Type Date Time Source
KESN TAF UTC NOAA

Error!

Example: see airport list